Angola, Louisiana
Current Conditions -  °F | °C
As of 10:35 AM on Friday 19 Dec 2014 (Local Time) from KHZR Reporting Station
Light Rain Light Rain  
Wind Chill: 55°   Ceiling: 400
Heat Index: 55°   Visibility: 10mi
Dew Point: 54°   Wind: 10mph
Humidity: 97%   Direction: 30°NNE
Pressure: 30.11"   Gusts: NA
Location:  30.95°N, 91.57°W
Report Text: KHZR 191635Z AUTO 03009KT 10SM -RA OVC004 13/12 A3011 RMK AO2 P0001 T01250120
Loading
Personal Weather Stations






























Interactive Weather Map New forecast layout! Learn more

10-Day Weather Forecast

Advertisements
Track Severe Weather on mobile